Imlaystown, New Jersey
Current Conditions -  °F | °C
As of 12:58 AM on Saturday 29 Nov 2014 (Local Time) from KWRI Reporting Station
Clear Clear  
Wind Chill: 22°   Ceiling: Unl
Heat Index: 22°   Visibility: 10mi
Dew Point: 17°   Wind: 3mph
Humidity: 81%   Direction: 160°SSE
Pressure: 30.26"   Gusts: NA
Location:  40.17°N, 74.51°W
Report Text: KWRI 290558Z AUTO 16003KT 10SM CLR M06/M08 A3026 RMK AO2 SLP252 T10561084 52008
Loading
Personal Weather Stations






























Interactive Weather Map New forecast layout! Learn more

10-Day Weather Forecast

Advertisements
Track Severe Weather on mobile